Pagina principale
METAR-TAF:

METAR-TAF

Aeroporti :

Messina, Italia

latitudine: 38-12N, longitudine: 015-33E, altezza: 59 m

Osservazione

Il bollettino è stato emesso 33 minuti fa, alle 09:55 UTC
Vento 8 kt da nord
Temperature 23°C
Umidità 41%
Pressione 1018 hPa
Visibilità 10 km o più
Nubi sparse ad un'altezza di 3500 ft

METAR: LICF 210955Z 35008KT 9999 SCT035 23/09 Q1018 RMK SCT QUK 2 QUL 0 VIS MAR 20 KM MON LIB NC VIS MIN 9999

Ora: 12:28 (10:28 UTC)


TAF: mancante

Osservazioni e previsioni meteorologiche di più di 4000 aeroporti (messaggi METAR e TAF).

Le stazioni disponibili sono rappresentate dai dischi gialli e rossi sulla carta.

Puntare il mouse per vedere il nome della stazione.

Clicca sopra per visualizzare le osservazioni e previsioni meteorologiche.

Per cambiare la mappa : fare clic sui pulsanti verdi con una croce nera per ingrandire, il pulsante verde con un trattino per diminuire, o sulla freccia verde per le mappe adiacenti.


METAR-TAF: